Time;durP1;ratioP1;P1;durP2;ratioP2;P2;SDS_P1;SDS_P2;PMS_P1;PMS_P2;Temp;Humidity;BMP_temperature;BMP_pressure;BME280_temperature;BME280_humidity;BME280_pressure;Samples;Min_cycle;Max_cycle;Signal;HPM_P1;HPM_P2
2021/09/02 00:00:02;;;;;;;4.30;2.75;;;;;;;;;;5038900;28;21290;-52
2021/09/02 00:02:28;;;;;;;3.50;2.30;;;;;;;;;;5046515;28;20796;-52
2021/09/02 00:04:54;;;;;;;4.38;2.42;;;;;;;;;;5042616;28;20410;-50
2021/09/02 00:07:23;;;;;;;3.85;2.30;;;;;;;;;;5051856;28;20417;-52
2021/09/02 00:09:49;;;;;;;3.08;2.05;;;;;;;;;;5040811;28;20442;-53
2021/09/02 00:12:15;;;;;;;3.55;2.22;;;;;;;;;;5057016;28;20457;-51
2021/09/02 00:14:41;;;;;;;2.92;1.77;;;;;;;;;;5048333;28;20416;-55
2021/09/02 00:17:07;;;;;;;3.97;2.22;;;;;;;;;;5052266;28;20416;-52
2021/09/02 00:19:35;;;;;;;3.13;1.95;;;;;;;;;;5039186;28;20383;-52
2021/09/02 00:22:01;;;;;;;5.50;2.65;;;;;;;;;;5046474;28;20389;-51
2021/09/02 00:24:27;;;;;;;3.08;2.13;;;;;;;;;;5049320;28;20397;-51
2021/09/02 00:26:53;;;;;;;3.90;2.35;;;;;;;;;;5041032;28;20427;-52
2021/09/02 00:29:19;;;;;;;3.60;2.25;;;;;;;;;;5038269;28;20399;-53
2021/09/02 00:31:45;;;;;;;4.05;2.25;;;;;;;;;;5060129;28;20376;-51
2021/09/02 00:34:11;;;;;;;3.53;2.10;;;;;;;;;;5043196;28;20411;-53
2021/09/02 00:36:37;;;;;;;2.88;1.92;;;;;;;;;;5043442;28;20452;-54
2021/09/02 00:39:04;;;;;;;4.95;2.40;;;;;;;;;;5056116;28;20785;-53
2021/09/02 00:41:30;;;;;;;3.58;2.10;;;;;;;;;;5032834;28;20473;-51
2021/09/02 00:43:55;;;;;;;3.15;2.10;;;;;;;;;;5045963;28;20767;-51
2021/09/02 00:46:21;;;;;;;3.85;2.58;;;;;;;;;;5043604;28;20394;-51
2021/09/02 00:48:48;;;;;;;3.97;2.30;;;;;;;;;;5044470;28;20397;-56
2021/09/02 00:51:15;;;;;;;3.83;2.22;;;;;;;;;;5046619;28;20505;-53
2021/09/02 00:53:41;;;;;;;4.45;2.70;;;;;;;;;;5037330;28;20492;-52
2021/09/02 00:56:07;;;;;;;4.32;2.65;;;;;;;;;;5054879;28;20427;-52
2021/09/02 00:58:33;;;;;;;3.63;2.10;;;;;;;;;;5038930;28;20513;-53
2021/09/02 01:00:59;;;;;;;4.22;2.70;;;;;;;;;;5048189;28;20455;-51
2021/09/02 01:03:25;;;;;;;4.35;2.58;;;;;;;;;;5046803;28;20875;-52
2021/09/02 01:05:54;;;;;;;3.87;2.70;;;;;;;;;;5053205;28;20882;-56
2021/09/02 01:08:21;;;;;;;4.20;2.55;;;;;;;;;;5043786;28;20725;-55
2021/09/02 01:10:49;;;;;;;3.72;2.40;;;;;;;;;;5047155;28;20396;-51
2021/09/02 01:13:16;;;;;;;4.20;2.35;;;;;;;;;;5044404;28;20392;-51
2021/09/02 01:15:42;;;;;;;4.93;2.55;;;;;;;;;;5046843;28;21012;-51
2021/09/02 01:18:08;;;;;;;4.40;2.67;;;;;;;;;;5048997;28;20413;-54
2021/09/02 01:20:34;;;;;;;5.55;3.10;;;;;;;;;;5047678;28;20396;-55
2021/09/02 01:23:01;;;;;;;4.18;2.42;;;;;;;;;;5041455;28;20430;-52
2021/09/02 01:25:29;;;;;;;5.30;3.28;;;;;;;;;;5047377;28;20425;-51
2021/09/02 01:28:03;;;;;;;4.78;2.90;;;;;;;;;;5046359;28;20485;-52
2021/09/02 01:30:29;;;;;;;3.80;2.42;;;;;;;;;;5051382;28;20482;-52
2021/09/02 01:32:56;;;;;;;4.13;2.53;;;;;;;;;;5049777;28;20819;-55
2021/09/02 01:35:22;;;;;;;6.03;2.97;;;;;;;;;;5044644;28;20489;-53
2021/09/02 01:37:54;;;;;;;5.53;3.20;;;;;;;;;;5050088;28;20392;-53
2021/09/02 01:40:21;;;;;;;5.72;3.03;;;;;;;;;;5038192;28;20546;-52
2021/09/02 01:42:47;;;;;;;4.40;2.70;;;;;;;;;;5056477;28;20391;-52
2021/09/02 01:45:14;;;;;;;5.07;3.30;;;;;;;;;;5047174;28;20694;-51
2021/09/02 01:47:40;;;;;;;5.88;3.13;;;;;;;;;;5054748;28;20466;-52
2021/09/02 01:50:08;;;;;;;4.90;2.58;;;;;;;;;;5054600;28;20390;-54
2021/09/02 01:52:34;;;;;;;3.60;2.53;;;;;;;;;;5058435;28;20516;-52
2021/09/02 01:55:00;;;;;;;3.50;2.58;;;;;;;;;;5055174;28;20465;-53
2021/09/02 01:57:26;;;;;;;5.30;2.85;;;;;;;;;;5043674;28;20391;-53
2021/09/02 01:59:52;;;;;;;4.28;2.63;;;;;;;;;;5040036;28;20403;-54
2021/09/02 02:02:18;;;;;;;4.45;2.50;;;;;;;;;;5027633;28;20801;-52
2021/09/02 02:04:44;;;;;;;4.00;2.23;;;;;;;;;;5041824;28;20412;-51
2021/09/02 02:07:10;;;;;;;3.67;2.50;;;;;;;;;;5045198;28;20814;-56
2021/09/02 02:09:36;;;;;;;4.27;2.70;;;;;;;;;;5056301;28;20399;-53
2021/09/02 02:12:02;;;;;;;4.72;2.60;;;;;;;;;;5046424;28;20767;-56
2021/09/02 02:14:28;;;;;;;3.72;2.50;;;;;;;;;;5041276;28;20758;-51
2021/09/02 02:16:54;;;;;;;4.88;2.70;;;;;;;;;;5061247;28;20434;-55
2021/09/02 02:19:20;;;;;;;4.05;2.50;;;;;;;;;;5062377;28;20392;-53
2021/09/02 02:21:46;;;;;;;3.67;2.42;;;;;;;;;;5051843;28;20391;-51
2021/09/02 02:24:12;;;;;;;5.35;2.67;;;;;;;;;;5049734;28;20403;-53
2021/09/02 02:26:38;;;;;;;5.93;2.20;;;;;;;;;;5053231;28;20478;-54
2021/09/02 02:29:04;;;;;;;3.53;2.20;;;;;;;;;;5057406;28;20397;-52
2021/09/02 02:31:30;;;;;;;4.23;2.50;;;;;;;;;;5045659;28;20386;-52
2021/09/02 02:33:56;;;;;;;3.35;2.20;;;;;;;;;;5053833;28;20508;-51
2021/09/02 02:36:22;;;;;;;3.17;1.90;;;;;;;;;;5053496;28;20717;-55
2021/09/02 02:38:48;;;;;;;3.72;2.28;;;;;;;;;;5048743;28;20415;-55
2021/09/02 02:41:14;;;;;;;4.68;2.85;;;;;;;;;;5048043;28;20444;-52
2021/09/02 02:43:40;;;;;;;3.63;2.28;;;;;;;;;;5054309;28;20403;-54
2021/09/02 02:46:06;;;;;;;4.00;2.40;;;;;;;;;;5055737;28;20412;-51
2021/09/02 02:48:32;;;;;;;4.97;2.20;;;;;;;;;;5043657;28;20404;-53
2021/09/02 02:50:58;;;;;;;4.27;2.60;;;;;;;;;;5050963;28;20471;-54
2021/09/02 02:53:24;;;;;;;4.37;2.77;;;;;;;;;;5046633;28;20488;-52
2021/09/02 02:55:50;;;;;;;4.18;2.50;;;;;;;;;;5054253;28;20406;-52
2021/09/02 02:58:16;;;;;;;3.35;2.45;;;;;;;;;;5057408;28;20387;-51
2021/09/02 03:00:42;;;;;;;4.47;2.40;;;;;;;;;;5055263;28;20405;-52
2021/09/02 03:03:08;;;;;;;4.15;2.60;;;;;;;;;;5043196;28;20389;-51
2021/09/02 03:05:34;;;;;;;3.50;2.20;;;;;;;;;;5047291;28;20405;-53
2021/09/02 03:08:00;;;;;;;4.07;2.50;;;;;;;;;;5053738;28;20406;-53
2021/09/02 03:10:26;;;;;;;4.73;2.90;;;;;;;;;;5059818;28;20394;-54
2021/09/02 03:12:52;;;;;;;4.05;2.45;;;;;;;;;;5048545;28;20477;-52
2021/09/02 03:15:18;;;;;;;4.73;2.70;;;;;;;;;;5050316;28;20415;-53
2021/09/02 03:17:44;;;;;;;3.53;2.50;;;;;;;;;;5052694;28;20428;-52
2021/09/02 03:20:10;;;;;;;3.50;2.22;;;;;;;;;;5046581;28;20396;-56
2021/09/02 03:22:37;;;;;;;4.55;2.63;;;;;;;;;;5058297;28;20762;-55
2021/09/02 03:25:03;;;;;;;3.88;2.40;;;;;;;;;;5051661;28;20408;-55
2021/09/02 03:27:29;;;;;;;4.25;2.30;;;;;;;;;;5053761;28;20805;-55
2021/09/02 03:29:55;;;;;;;3.35;2.17;;;;;;;;;;5044265;28;20398;-56
2021/09/02 03:32:21;;;;;;;3.70;2.25;;;;;;;;;;5048078;28;20955;-54
2021/09/02 03:34:47;;;;;;;6.00;2.97;;;;;;;;;;5048672;28;20414;-54
2021/09/02 03:37:13;;;;;;;3.60;2.42;;;;;;;;;;5058625;28;20515;-52
2021/09/02 03:39:39;;;;;;;3.55;2.33;;;;;;;;;;5049983;28;20397;-54
2021/09/02 03:42:05;;;;;;;4.57;2.43;;;;;;;;;;5054427;28;20402;-54
2021/09/02 03:44:31;;;;;;;4.03;2.67;;;;;;;;;;5052854;28;20482;-55
2021/09/02 03:46:57;;;;;;;5.05;2.60;;;;;;;;;;5045900;28;21330;-53
2021/09/02 03:49:23;;;;;;;4.53;2.53;;;;;;;;;;5048946;28;20393;-54
2021/09/02 03:51:49;;;;;;;3.97;2.30;;;;;;;;;;5051338;28;20433;-54
2021/09/02 03:54:15;;;;;;;3.55;2.10;;;;;;;;;;5047498;28;20773;-52
2021/09/02 03:56:41;;;;;;;3.00;2.05;;;;;;;;;;5041080;28;20409;-52
2021/09/02 03:59:07;;;;;;;3.33;2.20;;;;;;;;;;5044903;28;20406;-51
2021/09/02 04:01:33;;;;;;;3.70;2.40;;;;;;;;;;5039775;28;20397;-52
2021/09/02 04:03:59;;;;;;;4.22;2.40;;;;;;;;;;5050694;28;20395;-55
2021/09/02 04:06:25;;;;;;;4.03;2.30;;;;;;;;;;5041526;28;20476;-51
2021/09/02 04:08:51;;;;;;;3.22;2.03;;;;;;;;;;5054576;28;20388;-52
2021/09/02 04:11:17;;;;;;;4.45;2.20;;;;;;;;;;5047794;28;20401;-53
2021/09/02 04:13:43;;;;;;;3.40;2.30;;;;;;;;;;5044492;28;20415;-55
2021/09/02 04:16:09;;;;;;;3.65;2.25;;;;;;;;;;5045452;28;20792;-55
2021/09/02 04:18:35;;;;;;;3.47;2.13;;;;;;;;;;5047578;28;20409;-55
2021/09/02 04:21:04;;;;;;;3.83;2.35;;;;;;;;;;5040766;28;20411;-51
2021/09/02 04:23:33;;;;;;;5.38;2.72;;;;;;;;;;5043832;28;20455;-54
2021/09/02 04:26:00;;;;;;;4.10;2.50;;;;;;;;;;5048869;28;20509;-55
2021/09/02 04:28:26;;;;;;;3.88;2.50;;;;;;;;;;5044658;28;20420;-54
2021/09/02 04:30:52;;;;;;;4.07;2.30;;;;;;;;;;5044658;28;20763;-54
2021/09/02 04:33:18;;;;;;;4.35;2.72;;;;;;;;;;5045428;28;20734;-51
2021/09/02 04:35:44;;;;;;;4.82;2.97;;;;;;;;;;5041296;28;20421;-55
2021/09/02 04:38:10;;;;;;;6.03;3.20;;;;;;;;;;5053339;28;20472;-54
2021/09/02 04:40:36;;;;;;;4.30;2.63;;;;;;;;;;5050044;28;21259;-55
2021/09/02 04:43:02;;;;;;;4.45;2.70;;;;;;;;;;5052586;28;20389;-54
2021/09/02 04:45:28;;;;;;;3.60;2.35;;;;;;;;;;5049795;28;20956;-55
2021/09/02 04:47:54;;;;;;;5.35;3.42;;;;;;;;;;5047038;28;20476;-53
2021/09/02 04:50:20;;;;;;;6.63;3.50;;;;;;;;;;5061307;28;20797;-53
2021/09/02 04:52:47;;;;;;;4.45;2.88;;;;;;;;;;5049871;28;20964;-53
2021/09/02 04:55:13;;;;;;;5.50;2.78;;;;;;;;;;5049610;28;20498;-54
2021/09/02 04:57:40;;;;;;;4.18;2.67;;;;;;;;;;5051142;28;21073;-55
2021/09/02 05:00:06;;;;;;;5.25;3.15;;;;;;;;;;5047383;28;20389;-54
2021/09/02 05:02:32;;;;;;;5.20;2.60;;;;;;;;;;5047094;28;20393;-55
2021/09/02 05:04:58;;;;;;;3.88;2.53;;;;;;;;;;5026974;28;20428;-52
2021/09/02 05:07:25;;;;;;;4.95;3.10;;;;;;;;;;5050924;28;20476;-52
2021/09/02 05:09:51;;;;;;;4.18;2.65;;;;;;;;;;5046327;28;20488;-55
2021/09/02 05:12:17;;;;;;;3.80;2.40;;;;;;;;;;5055379;28;20803;-55
2021/09/02 05:14:44;;;;;;;3.67;2.58;;;;;;;;;;5022700;28;20421;-52
2021/09/02 05:17:11;;;;;;;3.97;2.45;;;;;;;;;;5046900;28;20523;-52
2021/09/02 05:19:37;;;;;;;5.35;2.80;;;;;;;;;;5050711;28;20946;-52
2021/09/02 05:22:03;;;;;;;5.00;2.67;;;;;;;;;;5051423;28;20399;-54
2021/09/02 05:24:29;;;;;;;3.92;2.60;;;;;;;;;;5048768;28;20809;-54
2021/09/02 05:26:55;;;;;;;4.32;2.83;;;;;;;;;;5043838;28;20402;-51
2021/09/02 05:29:21;;;;;;;3.83;2.35;;;;;;;;;;5047540;28;20407;-55
2021/09/02 05:31:47;;;;;;;4.60;2.78;;;;;;;;;;5057681;28;20520;-55
2021/09/02 05:34:13;;;;;;;4.55;2.65;;;;;;;;;;5054611;28;20409;-56
2021/09/02 05:36:39;;;;;;;3.90;2.53;;;;;;;;;;5042285;28;20436;-54
2021/09/02 05:39:06;;;;;;;4.40;2.70;;;;;;;;;;5042636;28;20401;-52
2021/09/02 05:41:32;;;;;;;5.63;3.10;;;;;;;;;;5049801;28;20922;-53
2021/09/02 05:43:58;;;;;;;5.10;2.50;;;;;;;;;;5056394;28;20418;-52
2021/09/02 05:46:24;;;;;;;4.40;2.85;;;;;;;;;;5046940;28;20429;-54
2021/09/02 05:48:50;;;;;;;4.95;3.05;;;;;;;;;;5054601;28;20441;-52
2021/09/02 05:51:16;;;;;;;4.95;2.75;;;;;;;;;;5061286;28;20798;-54
2021/09/02 05:53:42;;;;;;;4.57;3.10;;;;;;;;;;5054801;28;20460;-52
2021/09/02 05:56:08;;;;;;;4.43;3.10;;;;;;;;;;5040125;28;20391;-51
2021/09/02 05:58:34;;;;;;;4.63;3.20;;;;;;;;;;5054946;28;20388;-53
2021/09/02 06:01:00;;;;;;;5.95;2.92;;;;;;;;;;5052488;28;20447;-54
2021/09/02 06:03:28;;;;;;;5.80;3.20;;;;;;;;;;5058590;28;20401;-52
2021/09/02 06:05:54;;;;;;;5.22;3.20;;;;;;;;;;5055461;28;20428;-53
2021/09/02 06:08:20;;;;;;;6.53;3.40;;;;;;;;;;5056622;28;20425;-56
2021/09/02 06:10:46;;;;;;;6.93;3.63;;;;;;;;;;5051974;28;20482;-52
2021/09/02 06:13:12;;;;;;;4.60;3.05;;;;;;;;;;5050233;28;20486;-54
2021/09/02 06:15:38;;;;;;;6.97;4.10;;;;;;;;;;5045337;28;20402;-52
2021/09/02 06:18:04;;;;;;;7.05;3.67;;;;;;;;;;5058562;28;20424;-52
2021/09/02 06:20:30;;;;;;;9.05;4.32;;;;;;;;;;5050136;28;20408;-55
2021/09/02 06:22:56;;;;;;;6.53;4.18;;;;;;;;;;5060439;28;20890;-52
2021/09/02 06:25:22;;;;;;;6.63;4.30;;;;;;;;;;5050282;28;20834;-53
2021/09/02 06:27:48;;;;;;;7.25;3.80;;;;;;;;;;5054564;28;20910;-55
2021/09/02 06:30:14;;;;;;;8.63;4.55;;;;;;;;;;5043092;28;20432;-53
2021/09/02 06:32:40;;;;;;;9.02;4.45;;;;;;;;;;5057475;28;20419;-52
2021/09/02 06:35:07;;;;;;;7.90;4.93;;;;;;;;;;5055096;28;20421;-55
2021/09/02 06:37:32;;;;;;;9.02;5.22;;;;;;;;;;5057811;28;20380;-53
2021/09/02 06:39:58;;;;;;;9.93;5.40;;;;;;;;;;5052277;28;20468;-54
2021/09/02 06:42:25;;;;;;;10.20;5.60;;;;;;;;;;5052748;28;20480;-53
2021/09/02 06:44:51;;;;;;;12.10;5.22;;;;;;;;;;5046865;28;20403;-55
2021/09/02 06:47:17;;;;;;;9.80;5.43;;;;;;;;;;5044804;28;21152;-55
2021/09/02 06:49:42;;;;;;;9.02;5.00;;;;;;;;;;5049670;28;20433;-51
2021/09/02 06:52:08;;;;;;;8.85;5.00;;;;;;;;;;5049456;28;20383;-51
2021/09/02 06:54:34;;;;;;;9.60;5.37;;;;;;;;;;5052702;28;20408;-52
2021/09/02 06:57:00;;;;;;;10.15;5.78;;;;;;;;;;5056085;28;20449;-55
2021/09/02 06:59:26;;;;;;;9.63;5.05;;;;;;;;;;5056989;28;20382;-51
2021/09/02 07:01:52;;;;;;;9.60;5.80;;;;;;;;;;5049101;28;20375;-52
2021/09/02 07:04:18;;;;;;;10.55;4.68;;;;;;;;;;5046900;28;20917;-51
2021/09/02 07:06:44;;;;;;;7.25;4.20;;;;;;;;;;5047332;28;20730;-56
2021/09/02 07:09:10;;;;;;;9.00;5.50;;;;;;;;;;5050381;28;20396;-53
2021/09/02 07:11:36;;;;;;;10.52;5.13;;;;;;;;;;5057189;28;20477;-56
2021/09/02 07:14:04;;;;;;;7.35;4.75;;;;;;;;;;5051469;28;20401;-57
2021/09/02 07:16:30;;;;;;;6.68;3.92;;;;;;;;;;5049279;28;20405;-56
2021/09/02 07:18:56;;;;;;;7.55;4.45;;;;;;;;;;5052211;28;20496;-55
2021/09/02 07:21:22;;;;;;;6.38;4.38;;;;;;;;;;5051107;28;20389;-56
2021/09/02 07:23:48;;;;;;;8.40;5.30;;;;;;;;;;5052546;28;20456;-55
2021/09/02 07:26:14;;;;;;;6.78;4.40;;;;;;;;;;5057553;28;20478;-57
2021/09/02 07:28:40;;;;;;;9.82;4.78;;;;;;;;;;5054025;28;20449;-57
2021/09/02 07:31:07;;;;;;;7.97;4.90;;;;;;;;;;5054678;28;20493;-55
2021/09/02 07:33:33;;;;;;;6.95;4.20;;;;;;;;;;5062179;28;20368;-51
2021/09/02 07:35:59;;;;;;;8.07;4.68;;;;;;;;;;5047682;28;20410;-51
2021/09/02 07:38:25;;;;;;;7.65;4.88;;;;;;;;;;5057528;28;20748;-55
2021/09/02 07:40:51;;;;;;;7.65;4.53;;;;;;;;;;5050425;28;20377;-52
2021/09/02 07:43:17;;;;;;;8.23;4.67;;;;;;;;;;5056780;28;20408;-52
2021/09/02 07:45:43;;;;;;;7.80;4.60;;;;;;;;;;5052165;28;20405;-51
2021/09/02 07:48:09;;;;;;;6.82;4.45;;;;;;;;;;5055010;28;21072;-52
2021/09/02 07:50:35;;;;;;;7.88;4.35;;;;;;;;;;5050839;28;20394;-52
2021/09/02 07:53:01;;;;;;;6.68;4.35;;;;;;;;;;5050604;28;21016;-52
2021/09/02 07:55:27;;;;;;;8.15;4.57;;;;;;;;;;5056639;28;20394;-56
2021/09/02 07:57:53;;;;;;;6.53;4.20;;;;;;;;;;5048018;28;20393;-57
2021/09/02 08:00:19;;;;;;;7.53;4.27;;;;;;;;;;5049764;28;20378;-54
2021/09/02 08:02:46;;;;;;;8.43;4.70;;;;;;;;;;5049826;28;20395;-57
2021/09/02 08:05:12;;;;;;;7.60;4.60;;;;;;;;;;5050517;28;20400;-52
2021/09/02 08:07:45;;;;;;;6.95;4.00;;;;;;;;;;5051282;28;20413;-55
2021/09/02 08:10:11;;;;;;;6.13;4.13;;;;;;;;;;5047225;28;20385;-55
2021/09/02 08:12:37;;;;;;;6.75;3.78;;;;;;;;;;5044465;28;20418;-57
2021/09/02 08:15:03;;;;;;;7.27;4.50;;;;;;;;;;5048162;28;20484;-57
2021/09/02 08:17:29;;;;;;;5.83;3.40;;;;;;;;;;5042038;28;20527;-55
2021/09/02 08:19:55;;;;;;;5.30;3.30;;;;;;;;;;5051797;28;20977;-56
2021/09/02 08:22:21;;;;;;;6.38;4.30;;;;;;;;;;5042031;28;20413;-57
2021/09/02 08:24:47;;;;;;;5.07;3.42;;;;;;;;;;5045744;28;20447;-55
2021/09/02 08:27:13;;;;;;;6.85;4.47;;;;;;;;;;5050867;28;20480;-52
2021/09/02 08:29:39;;;;;;;6.20;3.83;;;;;;;;;;5050455;28;20400;-53
2021/09/02 08:32:05;;;;;;;5.93;3.60;;;;;;;;;;5051320;28;20401;-51
2021/09/02 08:34:31;;;;;;;7.55;4.40;;;;;;;;;;5048936;28;20466;-51
2021/09/02 08:36:57;;;;;;;5.80;3.30;;;;;;;;;;5058338;28;20786;-55
2021/09/02 08:39:23;;;;;;;6.95;4.10;;;;;;;;;;5044980;28;20392;-51
2021/09/02 08:41:49;;;;;;;5.87;3.57;;;;;;;;;;5050661;28;20369;-55
2021/09/02 08:44:15;;;;;;;5.50;3.60;;;;;;;;;;5050247;28;20394;-55
2021/09/02 08:46:42;;;;;;;6.70;3.80;;;;;;;;;;5050230;28;20900;-57
2021/09/02 08:49:09;;;;;;;7.00;3.90;;;;;;;;;;5055635;28;20436;-57
2021/09/02 08:51:36;;;;;;;5.25;3.67;;;;;;;;;;5054243;28;20387;-57
2021/09/02 08:54:02;;;;;;;7.77;4.33;;;;;;;;;;5044055;28;20555;-55
2021/09/02 08:56:28;;;;;;;7.25;3.75;;;;;;;;;;5048988;28;20468;-56
2021/09/02 08:58:54;;;;;;;5.68;3.40;;;;;;;;;;5039826;28;20732;-57
2021/09/02 09:01:20;;;;;;;5.40;3.50;;;;;;;;;;5059962;28;20407;-57
2021/09/02 09:03:49;;;;;;;6.53;4.28;;;;;;;;;;5055565;28;20720;-55
2021/09/02 09:06:42;;;;;;;5.47;2.90;;;;;;;;;;5059391;28;20431;-54
2021/09/02 09:09:17;;;;;;;5.57;3.70;;;;;;;;;;5045375;28;20396;-56
2021/09/02 09:11:47;;;;;;;6.20;3.60;;;;;;;;;;5030807;28;20403;-54
2021/09/02 09:14:17;;;;;;;8.00;4.25;;;;;;;;;;5049227;28;20401;-55
2021/09/02 09:16:43;;;;;;;7.95;4.25;;;;;;;;;;5051881;28;20373;-55
2021/09/02 09:19:09;;;;;;;6.23;4.03;;;;;;;;;;5057546;28;20388;-57
2021/09/02 09:21:35;;;;;;;6.53;4.05;;;;;;;;;;5045810;28;20397;-56
2021/09/02 09:24:09;;;;;;;8.90;4.45;;;;;;;;;;5056515;28;20539;-57
2021/09/02 09:26:36;;;;;;;6.67;4.13;;;;;;;;;;5049287;28;20482;-57
2021/09/02 09:29:04;;;;;;;7.03;4.30;;;;;;;;;;5045138;28;20546;-56
2021/09/02 09:31:32;;;;;;;9.02;4.10;;;;;;;;;;5050484;28;20412;-56
2021/09/02 09:33:59;;;;;;;6.05;3.78;;;;;;;;;;5059043;28;20745;-54
2021/09/02 09:36:26;;;;;;;7.25;4.22;;;;;;;;;;5054227;28;20464;-56
2021/09/02 09:39:03;;;;;;;7.13;4.30;;;;;;;;;;5044043;28;20458;-55
2021/09/02 09:41:32;;;;;;;6.10;3.95;;;;;;;;;;5052737;28;20391;-56
2021/09/02 09:44:17;;;;;;;8.88;4.28;;;;;;;;;;5049534;28;20381;-57
2021/09/02 09:46:43;;;;;;;7.05;4.25;;;;;;;;;;5042663;28;20409;-55
2021/09/02 09:49:09;;;;;;;4.70;3.30;;;;;;;;;;5049604;28;20407;-52
2021/09/02 09:51:35;;;;;;;6.20;4.18;;;;;;;;;;5041944;28;21073;-55
2021/09/02 09:54:02;;;;;;;5.95;3.72;;;;;;;;;;5051393;28;20429;-55
2021/09/02 09:56:28;;;;;;;5.87;3.43;;;;;;;;;;5050832;28;20754;-55
2021/09/02 09:58:55;;;;;;;5.68;3.47;;;;;;;;;;5054292;28;20405;-55
2021/09/02 10:01:21;;;;;;;5.70;3.77;;;;;;;;;;5042156;28;20456;-57
2021/09/02 10:03:51;;;;;;;5.50;3.50;;;;;;;;;;5046266;28;20405;-51
2021/09/02 10:06:18;;;;;;;7.53;4.25;;;;;;;;;;5034189;28;20526;-51
2021/09/02 10:08:44;;;;;;;6.95;3.58;;;;;;;;;;5060779;28;20491;-57
2021/09/02 10:11:12;;;;;;;7.00;3.97;;;;;;;;;;5058516;28;20592;-56
2021/09/02 10:13:38;;;;;;;5.38;3.30;;;;;;;;;;5048143;28;20448;-52
2021/09/02 10:16:04;;;;;;;6.20;3.67;;;;;;;;;;5058473;28;20476;-56
2021/09/02 10:18:31;;;;;;;4.78;2.92;;;;;;;;;;5044941;28;20426;-56
2021/09/02 10:21:02;;;;;;;4.95;3.15;;;;;;;;;;5061308;28;20724;-57
2021/09/02 10:23:28;;;;;;;5.22;3.30;;;;;;;;;;5054463;28;20707;-55
2021/09/02 10:25:54;;;;;;;4.82;2.78;;;;;;;;;;5053418;28;20432;-54
2021/09/02 10:28:37;;;;;;;7.37;3.40;;;;;;;;;;5039378;28;20419;-55
2021/09/02 10:31:21;;;;;;;5.18;2.90;;;;;;;;;;5049402;28;20913;-57
2021/09/02 10:33:48;;;;;;;5.47;3.25;;;;;;;;;;5042759;28;20402;-54
2021/09/02 10:36:13;;;;;;;4.85;2.88;;;;;;;;;;5053364;28;20366;-57
2021/09/02 10:38:41;;;;;;;6.07;3.15;;;;;;;;;;5050625;28;20393;-56
2021/09/02 10:41:07;;;;;;;6.32;2.90;;;;;;;;;;5056461;28;20476;-51
2021/09/02 10:43:47;;;;;;;4.63;2.65;;;;;;;;;;5052164;28;20731;-57
2021/09/02 10:46:29;;;;;;;4.75;2.80;;;;;;;;;;5055215;28;20454;-55
2021/09/02 10:48:55;;;;;;;5.05;2.90;;;;;;;;;;5051765;28;20749;-52
2021/09/02 10:51:38;;;;;;;5.20;2.90;;;;;;;;;;5045082;28;20388;-57
2021/09/02 10:54:05;;;;;;;5.40;2.60;;;;;;;;;;5037802;28;20853;-56
2021/09/02 10:56:32;;;;;;;5.18;3.00;;;;;;;;;;5055926;28;20393;-57
2021/09/02 10:58:58;;;;;;;4.85;3.03;;;;;;;;;;5062252;28;20945;-57
2021/09/02 11:01:24;;;;;;;5.20;2.60;;;;;;;;;;5048442;28;20481;-57
2021/09/02 11:03:51;;;;;;;5.53;2.92;;;;;;;;;;5044353;28;20772;-51
2021/09/02 11:06:17;;;;;;;6.60;3.38;;;;;;;;;;5056098;28;20430;-51
2021/09/02 11:08:43;;;;;;;5.53;3.17;;;;;;;;;;5051863;28;20862;-56
2021/09/02 11:11:13;;;;;;;5.20;3.05;;;;;;;;;;5046455;28;20425;-53
2021/09/02 11:13:43;;;;;;;5.73;2.90;;;;;;;;;;5066925;28;20379;-52
2021/09/02 11:16:14;;;;;;;6.15;3.03;;;;;;;;;;5042425;28;20421;-55
2021/09/02 11:18:41;;;;;;;5.47;3.28;;;;;;;;;;5051072;28;20751;-52
2021/09/02 11:21:17;;;;;;;6.00;3.42;;;;;;;;;;5051763;28;20377;-57
2021/09/02 11:23:47;;;;;;;5.68;2.92;;;;;;;;;;5052793;28;20476;-54
2021/09/02 11:26:29;;;;;;;5.90;3.38;;;;;;;;;;5057304;28;20421;-55
2021/09/02 11:28:55;;;;;;;5.88;3.47;;;;;;;;;;5045676;28;20409;-51
2021/09/02 11:31:21;;;;;;;7.18;3.47;;;;;;;;;;5051894;28;20408;-56
2021/09/02 11:33:48;;;;;;;5.70;3.13;;;;;;;;;;5044210;28;20826;-56
2021/09/02 11:36:14;;;;;;;5.60;3.20;;;;;;;;;;5055417;28;20388;-51
2021/09/02 11:38:41;;;;;;;6.47;2.90;;;;;;;;;;5055006;28;20388;-56
2021/09/02 11:41:22;;;;;;;5.30;3.10;;;;;;;;;;5049507;28;20393;-56
2021/09/02 11:43:51;;;;;;;6.13;2.88;;;;;;;;;;5032040;28;20414;-56
2021/09/02 11:46:17;;;;;;;6.20;2.87;;;;;;;;;;5048148;28;20393;-55
2021/09/02 11:48:53;;;;;;;7.03;3.33;;;;;;;;;;5049225;28;20393;-57
2021/09/02 11:51:21;;;;;;;6.78;3.45;;;;;;;;;;5051251;28;20470;-57
2021/09/02 11:53:50;;;;;;;5.53;2.90;;;;;;;;;;5048347;28;20394;-57
2021/09/02 11:56:21;;;;;;;6.30;3.33;;;;;;;;;;5063339;28;20381;-55
2021/09/02 11:58:47;;;;;;;5.18;2.63;;;;;;;;;;5045628;28;20395;-54
2021/09/02 12:01:14;;;;;;;5.72;2.88;;;;;;;;;;5051387;28;20462;-57
2021/09/02 12:03:40;;;;;;;5.20;2.72;;;;;;;;;;5053106;28;20981;-55
2021/09/02 12:06:06;;;;;;;4.38;2.60;;;;;;;;;;5059715;28;20411;-56
2021/09/02 12:08:33;;;;;;;5.60;2.70;;;;;;;;;;5051068;28;20482;-56
2021/09/02 12:10:59;;;;;;;5.28;2.60;;;;;;;;;;5052113;28;20491;-52
2021/09/02 12:13:33;;;;;;;5.93;3.20;;;;;;;;;;5064562;28;20458;-54
2021/09/02 12:16:03;;;;;;;5.05;2.53;;;;;;;;;;5061334;28;20408;-51
2021/09/02 12:18:30;;;;;;;6.88;2.80;;;;;;;;;;5050317;28;20495;-52
2021/09/02 12:21:06;;;;;;;6.40;3.25;;;;;;;;;;5054488;28;20388;-54
2021/09/02 12:23:41;;;;;;;6.90;2.70;;;;;;;;;;5043232;28;20389;-55
2021/09/02 12:26:08;;;;;;;4.93;2.80;;;;;;;;;;5042537;28;20406;-53
2021/09/02 12:28:41;;;;;;;5.10;2.40;;;;;;;;;;5049649;28;20396;-56
2021/09/02 12:31:33;;;;;;;4.93;2.40;;;;;;;;;;5055220;28;20499;-52
2021/09/02 12:34:08;;;;;;;4.97;2.50;;;;;;;;;;5049113;28;20411;-57
2021/09/02 12:36:35;;;;;;;7.18;2.58;;;;;;;;;;5054410;28;20393;-54
2021/09/02 12:39:11;;;;;;;4.57;2.72;;;;;;;;;;5053094;28;20443;-57
2021/09/02 12:41:40;;;;;;;4.33;2.20;;;;;;;;;;5052664;28;20957;-55
2021/09/02 12:44:09;;;;;;;4.68;2.33;;;;;;;;;;5052406;28;20394;-54
2021/09/02 12:46:53;;;;;;;4.03;2.00;;;;;;;;;;5038202;28;20433;-55
2021/09/02 12:49:19;;;;;;;4.17;2.10;;;;;;;;;;5059727;28;20750;-57
2021/09/02 12:51:58;;;;;;;3.75;1.80;;;;;;;;;;5046385;28;20422;-56
2021/09/02 12:54:24;;;;;;;3.97;1.80;;;;;;;;;;5040779;28;20417;-55
2021/09/02 12:56:51;;;;;;;3.40;1.65;;;;;;;;;;5058438;28;20464;-51
2021/09/02 12:59:17;;;;;;;3.75;2.00;;;;;;;;;;5052108;28;20389;-53
2021/09/02 13:01:43;;;;;;;4.40;1.70;;;;;;;;;;5059922;28;20394;-56
2021/09/02 13:04:09;;;;;;;2.83;1.60;;;;;;;;;;5050291;28;20427;-54
2021/09/02 13:06:35;;;;;;;3.45;1.70;;;;;;;;;;5066695;28;20372;-55
2021/09/02 13:09:01;;;;;;;4.30;1.50;;;;;;;;;;5057419;28;20960;-56
2021/09/02 13:11:28;;;;;;;4.43;1.80;;;;;;;;;;5053044;28;20383;-54
2021/09/02 13:13:54;;;;;;;5.07;1.60;;;;;;;;;;5054082;28;20397;-56
2021/09/02 13:16:20;;;;;;;3.47;1.70;;;;;;;;;;5059166;28;20376;-55
2021/09/02 13:18:46;;;;;;;3.92;1.92;;;;;;;;;;5044821;28;20429;-54
2021/09/02 13:21:13;;;;;;;4.47;1.60;;;;;;;;;;5045889;28;20394;-55
2021/09/02 13:23:39;;;;;;;3.10;1.60;;;;;;;;;;5030083;28;20416;-56
2021/09/02 13:26:05;;;;;;;3.13;1.40;;;;;;;;;;5052382;28;20387;-54
2021/09/02 13:28:31;;;;;;;2.97;1.67;;;;;;;;;;5047338;28;20480;-57
2021/09/02 13:30:57;;;;;;;3.13;1.50;;;;;;;;;;5063209;28;20428;-57
2021/09/02 13:33:23;;;;;;;6.07;1.90;;;;;;;;;;5048067;28;20389;-57
2021/09/02 13:35:49;;;;;;;3.03;1.58;;;;;;;;;;5042069;28;20429;-57
2021/09/02 13:38:15;;;;;;;3.80;1.80;;;;;;;;;;5048255;28;20396;-57
2021/09/02 13:40:41;;;;;;;4.78;2.08;;;;;;;;;;5046625;28;20399;-56
2021/09/02 13:43:07;;;;;;;4.05;1.70;;;;;;;;;;5049331;28;20448;-54
2021/09/02 13:45:33;;;;;;;5.30;2.10;;;;;;;;;;5051452;28;20376;-56
2021/09/02 13:47:59;;;;;;;4.32;1.95;;;;;;;;;;5041141;28;20396;-54
2021/09/02 13:50:25;;;;;;;4.60;1.80;;;;;;;;;;5052011;28;20419;-56
2021/09/02 13:52:51;;;;;;;3.58;1.80;;;;;;;;;;5043583;28;20385;-58
2021/09/02 13:55:18;;;;;;;3.87;2.00;;;;;;;;;;5048693;28;20415;-56
2021/09/02 13:57:44;;;;;;;4.15;1.83;;;;;;;;;;5043675;28;20485;-56
2021/09/02 14:00:11;;;;;;;5.57;2.07;;;;;;;;;;5053778;28;20460;-56
2021/09/02 14:02:37;;;;;;;5.22;1.83;;;;;;;;;;5049569;28;20480;-57
2021/09/02 14:05:04;;;;;;;3.65;2.00;;;;;;;;;;5046791;28;20400;-55
2021/09/02 14:07:30;;;;;;;3.58;1.40;;;;;;;;;;5050754;28;20547;-57
2021/09/02 14:09:56;;;;;;;3.60;1.50;;;;;;;;;;5047120;28;20393;-58
2021/09/02 14:12:22;;;;;;;2.92;1.50;;;;;;;;;;5055803;28;20453;-56
2021/09/02 14:14:48;;;;;;;6.22;1.85;;;;;;;;;;5047264;28;20418;-57
2021/09/02 14:17:14;;;;;;;3.70;1.48;;;;;;;;;;5061159;28;20391;-56
2021/09/02 14:19:40;;;;;;;4.38;1.50;;;;;;;;;;5058543;28;20414;-57
2021/09/02 14:22:06;;;;;;;4.22;1.88;;;;;;;;;;5057152;28;20554;-55
2021/09/02 14:24:32;;;;;;;3.00;1.27;;;;;;;;;;5053272;28;21195;-56
2021/09/02 14:26:58;;;;;;;3.37;1.80;;;;;;;;;;5060840;28;20482;-57
2021/09/02 14:29:24;;;;;;;5.60;1.90;;;;;;;;;;5050669;28;20470;-54
2021/09/02 14:31:50;;;;;;;4.10;1.70;;;;;;;;;;5044189;28;20484;-57
2021/09/02 14:34:16;;;;;;;4.22;1.60;;;;;;;;;;5045669;28;20458;-57
2021/09/02 14:36:42;;;;;;;3.00;1.63;;;;;;;;;;5048422;28;20401;-54
2021/09/02 14:39:08;;;;;;;4.22;1.63;;;;;;;;;;5053824;28;20487;-56
2021/09/02 14:41:34;;;;;;;3.05;1.40;;;;;;;;;;5054139;28;20867;-53